sensor_id;sensor_type;location;lat;lon;timestamp;P1;durP1;ratioP1;P2;durP2;ratioP2
69629;SDS011;56857;52.212;5.496;2023-12-04T00:00:28;22.98;;;11.73;;
69629;SDS011;56857;52.212;5.496;2023-12-04T00:05:19;26.30;;;10.52;;
69629;SDS011;56857;52.212;5.496;2023-12-04T00:10:09;24.75;;;10.93;;
69629;SDS011;56857;52.212;5.496;2023-12-04T00:12:34;26.60;;;12.50;;
69629;SDS011;56857;52.212;5.496;2023-12-04T00:17:25;20.65;;;10.10;;
69629;SDS011;56857;52.212;5.496;2023-12-04T00:19:50;25.73;;;11.80;;
69629;SDS011;56857;52.212;5.496;2023-12-04T00:22:16;24.17;;;12.67;;
69629;SDS011;56857;52.212;5.496;2023-12-04T00:27:06;26.60;;;12.90;;
69629;SDS011;56857;52.212;5.496;2023-12-04T00:31:57;27.15;;;14.38;;
69629;SDS011;56857;52.212;5.496;2023-12-04T00:34:22;26.15;;;13.02;;
69629;SDS011;56857;52.212;5.496;2023-12-04T00:39:12;26.80;;;12.30;;
69629;SDS011;56857;52.212;5.496;2023-12-04T00:44:03;24.63;;;13.55;;
69629;SDS011;56857;52.212;5.496;2023-12-04T00:46:28;22.88;;;9.77;;
69629;SDS011;56857;52.212;5.496;2023-12-04T00:48:54;26.75;;;14.10;;
69629;SDS011;56857;52.212;5.496;2023-12-04T00:53:44;27.25;;;13.63;;
69629;SDS011;56857;52.212;5.496;2023-12-04T00:56:09;27.00;;;13.43;;
69629;SDS011;56857;52.212;5.496;2023-12-04T00:58:35;26.73;;;13.88;;
69629;SDS011;56857;52.212;5.496;2023-12-04T01:01:00;28.38;;;13.93;;
69629;SDS011;56857;52.212;5.496;2023-12-04T01:05:51;23.70;;;11.43;;
69629;SDS011;56857;52.212;5.496;2023-12-04T01:10:41;23.80;;;10.65;;
69629;SDS011;56857;52.212;5.496;2023-12-04T01:13:07;31.13;;;14.20;;
69629;SDS011;56857;52.212;5.496;2023-12-04T01:15:32;29.17;;;14.68;;
69629;SDS011;56857;52.212;5.496;2023-12-04T01:20:23;28.83;;;13.93;;
69629;SDS011;56857;52.212;5.496;2023-12-04T01:22:48;28.97;;;13.07;;
69629;SDS011;56857;52.212;5.496;2023-12-04T01:27:39;26.67;;;11.80;;
69629;SDS011;56857;52.212;5.496;2023-12-04T01:30:05;34.77;;;16.10;;
69629;SDS011;56857;52.212;5.496;2023-12-04T01:32:31;21.13;;;10.45;;
69629;SDS011;56857;52.212;5.496;2023-12-04T01:37:21;28.58;;;13.88;;
69629;SDS011;56857;52.212;5.496;2023-12-04T01:39:46;25.33;;;14.10;;
69629;SDS011;56857;52.212;5.496;2023-12-04T01:42:12;31.53;;;15.00;;
69629;SDS011;56857;52.212;5.496;2023-12-04T01:44:37;27.20;;;14.15;;
69629;SDS011;56857;52.212;5.496;2023-12-04T01:49:29;34.97;;;15.68;;
69629;SDS011;56857;52.212;5.496;2023-12-04T01:51:55;31.00;;;16.15;;
69629;SDS011;56857;52.212;5.496;2023-12-04T01:54:22;29.50;;;15.02;;
69629;SDS011;56857;52.212;5.496;2023-12-04T01:56:48;28.20;;;12.80;;
69629;SDS011;56857;52.212;5.496;2023-12-04T02:01:39;33.83;;;13.77;;
69629;SDS011;56857;52.212;5.496;2023-12-04T02:06:31;29.45;;;14.05;;
69629;SDS011;56857;52.212;5.496;2023-12-04T02:08:56;29.70;;;14.55;;
69629;SDS011;56857;52.212;5.496;2023-12-04T02:11:22;29.40;;;14.23;;
69629;SDS011;56857;52.212;5.496;2023-12-04T02:13:47;32.05;;;13.73;;
69629;SDS011;56857;52.212;5.496;2023-12-04T02:18:39;28.40;;;13.38;;
69629;SDS011;56857;52.212;5.496;2023-12-04T02:21:06;28.48;;;12.25;;
69629;SDS011;56857;52.212;5.496;2023-12-04T02:26:01;30.88;;;13.02;;
69629;SDS011;56857;52.212;5.496;2023-12-04T02:28:33;26.55;;;11.93;;
69629;SDS011;56857;52.212;5.496;2023-12-04T02:31:01;27.98;;;14.02;;
69629;SDS011;56857;52.212;5.496;2023-12-04T02:33:28;27.10;;;12.77;;
69629;SDS011;56857;52.212;5.496;2023-12-04T02:35:54;27.00;;;14.43;;
69629;SDS011;56857;52.212;5.496;2023-12-04T02:38:21;28.65;;;12.82;;
69629;SDS011;56857;52.212;5.496;2023-12-04T02:43:11;27.10;;;12.27;;
69629;SDS011;56857;52.212;5.496;2023-12-04T02:48:02;29.73;;;14.68;;
69629;SDS011;56857;52.212;5.496;2023-12-04T02:52:53;28.20;;;13.43;;
69629;SDS011;56857;52.212;5.496;2023-12-04T02:55:18;27.35;;;14.05;;
69629;SDS011;56857;52.212;5.496;2023-12-04T03:00:09;28.08;;;11.13;;
69629;SDS011;56857;52.212;5.496;2023-12-04T03:05:00;27.05;;;11.23;;
69629;SDS011;56857;52.212;5.496;2023-12-04T03:07:25;23.25;;;10.65;;
69629;SDS011;56857;52.212;5.496;2023-12-04T03:12:16;23.80;;;11.73;;
69629;SDS011;56857;52.212;5.496;2023-12-04T03:17:07;29.02;;;11.75;;
69629;SDS011;56857;52.212;5.496;2023-12-04T03:19:33;30.77;;;12.40;;
69629;SDS011;56857;52.212;5.496;2023-12-04T03:24:25;18.02;;;9.10;;
69629;SDS011;56857;52.212;5.496;2023-12-04T03:29:15;20.07;;;9.60;;
69629;SDS011;56857;52.212;5.496;2023-12-04T03:34:06;24.10;;;11.60;;
69629;SDS011;56857;52.212;5.496;2023-12-04T03:36:31;27.63;;;11.53;;
69629;SDS011;56857;52.212;5.496;2023-12-04T03:41:21;24.50;;;11.40;;
69629;SDS011;56857;52.212;5.496;2023-12-04T03:46:12;25.00;;;10.77;;
69629;SDS011;56857;52.212;5.496;2023-12-04T03:48:37;24.35;;;10.90;;
69629;SDS011;56857;52.212;5.496;2023-12-04T03:53:29;20.98;;;9.48;;
69629;SDS011;56857;52.212;5.496;2023-12-04T03:58:19;23.70;;;10.95;;
69629;SDS011;56857;52.212;5.496;2023-12-04T04:00:45;20.25;;;9.73;;
69629;SDS011;56857;52.212;5.496;2023-12-04T04:03:10;24.30;;;11.27;;
69629;SDS011;56857;52.212;5.496;2023-12-04T04:05:35;26.20;;;12.10;;
69629;SDS011;56857;52.212;5.496;2023-12-04T04:10:26;21.02;;;11.13;;
69629;SDS011;56857;52.212;5.496;2023-12-04T04:15:17;25.83;;;11.47;;
69629;SDS011;56857;52.212;5.496;2023-12-04T04:20:08;16.20;;;6.43;;
69629;SDS011;56857;52.212;5.496;2023-12-04T04:24:58;22.37;;;10.47;;
69629;SDS011;56857;52.212;5.496;2023-12-04T04:29:49;23.98;;;11.55;;
69629;SDS011;56857;52.212;5.496;2023-12-04T04:34:40;21.43;;;10.47;;
69629;SDS011;56857;52.212;5.496;2023-12-04T04:39:30;20.67;;;11.20;;
69629;SDS011;56857;52.212;5.496;2023-12-04T04:44:21;22.88;;;10.30;;
69629;SDS011;56857;52.212;5.496;2023-12-04T04:46:46;20.17;;;9.73;;
69629;SDS011;56857;52.212;5.496;2023-12-04T04:49:11;20.90;;;11.07;;
69629;SDS011;56857;52.212;5.496;2023-12-04T04:51:37;19.53;;;9.37;;
69629;SDS011;56857;52.212;5.496;2023-12-04T04:54:02;23.65;;;10.15;;
69629;SDS011;56857;52.212;5.496;2023-12-04T04:58:53;20.35;;;10.73;;
69629;SDS011;56857;52.212;5.496;2023-12-04T05:03:44;17.95;;;9.55;;
69629;SDS011;56857;52.212;5.496;2023-12-04T05:06:10;19.60;;;9.33;;
69629;SDS011;56857;52.212;5.496;2023-12-04T05:08:35;23.15;;;11.30;;
69629;SDS011;56857;52.212;5.496;2023-12-04T05:13:25;20.03;;;9.83;;
69629;SDS011;56857;52.212;5.496;2023-12-04T05:15:51;23.10;;;12.93;;
69629;SDS011;56857;52.212;5.496;2023-12-04T05:18:16;24.88;;;12.65;;
69629;SDS011;56857;52.212;5.496;2023-12-04T05:23:07;29.03;;;14.63;;
69629;SDS011;56857;52.212;5.496;2023-12-04T05:27:57;21.30;;;10.67;;
69629;SDS011;56857;52.212;5.496;2023-12-04T05:32:48;17.45;;;8.80;;
69629;SDS011;56857;52.212;5.496;2023-12-04T05:35:14;19.55;;;9.50;;
69629;SDS011;56857;52.212;5.496;2023-12-04T05:37:40;17.65;;;9.45;;
69629;SDS011;56857;52.212;5.496;2023-12-04T05:42:31;18.50;;;9.80;;
69629;SDS011;56857;52.212;5.496;2023-12-04T05:47:22;20.90;;;10.50;;
69629;SDS011;56857;52.212;5.496;2023-12-04T05:49:47;20.03;;;10.00;;
69629;SDS011;56857;52.212;5.496;2023-12-04T05:52:12;19.13;;;9.88;;
69629;SDS011;56857;52.212;5.496;2023-12-04T05:57:03;17.08;;;6.93;;
69629;SDS011;56857;52.212;5.496;2023-12-04T06:01:54;16.25;;;8.80;;
69629;SDS011;56857;52.212;5.496;2023-12-04T06:06:45;17.77;;;8.90;;
69629;SDS011;56857;52.212;5.496;2023-12-04T06:11:35;12.47;;;6.23;;
69629;SDS011;56857;52.212;5.496;2023-12-04T06:14:00;21.00;;;11.25;;
69629;SDS011;56857;52.212;5.496;2023-12-04T06:16:26;18.88;;;9.93;;
69629;SDS011;56857;52.212;5.496;2023-12-04T06:21:16;16.00;;;8.73;;
69629;SDS011;56857;52.212;5.496;2023-12-04T06:26:07;17.20;;;9.52;;
69629;SDS011;56857;52.212;5.496;2023-12-04T06:30:58;16.83;;;9.30;;
69629;SDS011;56857;52.212;5.496;2023-12-04T06:35:49;18.53;;;9.70;;
69629;SDS011;56857;52.212;5.496;2023-12-04T06:38:15;19.20;;;8.82;;
69629;SDS011;56857;52.212;5.496;2023-12-04T06:40:41;18.40;;;10.20;;
69629;SDS011;56857;52.212;5.496;2023-12-04T06:45:32;16.92;;;8.85;;
69629;SDS011;56857;52.212;5.496;2023-12-04T06:47:58;17.10;;;9.60;;
69629;SDS011;56857;52.212;5.496;2023-12-04T06:52:49;15.63;;;8.43;;
69629;SDS011;56857;52.212;5.496;2023-12-04T06:57:40;17.13;;;8.93;;
69629;SDS011;56857;52.212;5.496;2023-12-04T07:02:31;17.13;;;9.38;;
69629;SDS011;56857;52.212;5.496;2023-12-04T07:07:21;16.27;;;9.03;;
69629;SDS011;56857;52.212;5.496;2023-12-04T07:12:12;11.53;;;7.07;;
69629;SDS011;56857;52.212;5.496;2023-12-04T07:17:03;17.60;;;9.13;;
69629;SDS011;56857;52.212;5.496;2023-12-04T07:21:53;15.48;;;7.88;;
69629;SDS011;56857;52.212;5.496;2023-12-04T07:24:19;17.83;;;8.50;;
69629;SDS011;56857;52.212;5.496;2023-12-04T07:26:44;17.57;;;8.93;;
69629;SDS011;56857;52.212;5.496;2023-12-04T07:29:09;19.00;;;8.50;;
69629;SDS011;56857;52.212;5.496;2023-12-04T07:34:00;18.60;;;7.60;;
69629;SDS011;56857;52.212;5.496;2023-12-04T07:38:50;17.52;;;8.25;;
69629;SDS011;56857;52.212;5.496;2023-12-04T07:41:16;15.97;;;8.73;;
69629;SDS011;56857;52.212;5.496;2023-12-04T07:43:42;18.35;;;7.85;;
69629;SDS011;56857;52.212;5.496;2023-12-04T07:46:09;14.70;;;7.73;;
69629;SDS011;56857;52.212;5.496;2023-12-04T07:48:35;16.20;;;8.02;;
69629;SDS011;56857;52.212;5.496;2023-12-04T07:53:25;16.13;;;8.03;;
69629;SDS011;56857;52.212;5.496;2023-12-04T07:58:16;13.60;;;8.20;;
69629;SDS011;56857;52.212;5.496;2023-12-04T08:00:42;17.17;;;9.23;;
69629;SDS011;56857;52.212;5.496;2023-12-04T08:03:09;18.15;;;7.88;;
69629;SDS011;56857;52.212;5.496;2023-12-04T08:07:59;14.15;;;7.32;;
69629;SDS011;56857;52.212;5.496;2023-12-04T08:12:50;16.58;;;7.55;;
69629;SDS011;56857;52.212;5.496;2023-12-04T08:17:40;14.15;;;7.95;;
69629;SDS011;56857;52.212;5.496;2023-12-04T08:22:31;17.98;;;8.55;;
69629;SDS011;56857;52.212;5.496;2023-12-04T08:27:22;14.93;;;7.30;;
69629;SDS011;56857;52.212;5.496;2023-12-04T08:32:12;12.98;;;7.07;;
69629;SDS011;56857;52.212;5.496;2023-12-04T08:34:37;14.50;;;7.50;;
69629;SDS011;56857;52.212;5.496;2023-12-04T08:37:03;12.55;;;6.50;;
69629;SDS011;56857;52.212;5.496;2023-12-04T08:39:28;15.27;;;6.82;;
69629;SDS011;56857;52.212;5.496;2023-12-04T08:41:53;17.23;;;7.80;;
69629;SDS011;56857;52.212;5.496;2023-12-04T08:44:19;13.13;;;7.97;;
69629;SDS011;56857;52.212;5.496;2023-12-04T08:49:09;11.03;;;5.37;;
69629;SDS011;56857;52.212;5.496;2023-12-04T08:54:00;13.98;;;8.23;;
69629;SDS011;56857;52.212;5.496;2023-12-04T08:58:50;16.65;;;7.07;;
69629;SDS011;56857;52.212;5.496;2023-12-04T09:01:16;16.60;;;8.43;;
69629;SDS011;56857;52.212;5.496;2023-12-04T09:06:07;16.48;;;8.55;;
69629;SDS011;56857;52.212;5.496;2023-12-04T09:08:32;15.68;;;7.45;;
69629;SDS011;56857;52.212;5.496;2023-12-04T09:10:58;15.63;;;7.00;;
69629;SDS011;56857;52.212;5.496;2023-12-04T09:13:23;14.40;;;7.60;;
69629;SDS011;56857;52.212;5.496;2023-12-04T09:15:48;14.13;;;6.75;;
69629;SDS011;56857;52.212;5.496;2023-12-04T09:20:39;17.67;;;7.47;;
69629;SDS011;56857;52.212;5.496;2023-12-04T09:25:29;15.13;;;7.00;;
69629;SDS011;56857;52.212;5.496;2023-12-04T09:30:20;12.43;;;6.00;;
69629;SDS011;56857;52.212;5.496;2023-12-04T09:35:10;12.18;;;7.22;;
69629;SDS011;56857;52.212;5.496;2023-12-04T09:40:01;15.90;;;8.17;;
69629;SDS011;56857;52.212;5.496;2023-12-04T09:44:52;16.60;;;7.28;;
69629;SDS011;56857;52.212;5.496;2023-12-04T09:47:18;16.80;;;7.85;;
69629;SDS011;56857;52.212;5.496;2023-12-04T09:49:44;13.85;;;7.35;;
69629;SDS011;56857;52.212;5.496;2023-12-04T09:52:10;13.80;;;6.80;;
69629;SDS011;56857;52.212;5.496;2023-12-04T09:54:36;12.40;;;6.47;;
69629;SDS011;56857;52.212;5.496;2023-12-04T09:57:03;13.40;;;6.45;;
69629;SDS011;56857;52.212;5.496;2023-12-04T09:59:30;13.38;;;7.72;;
69629;SDS011;56857;52.212;5.496;2023-12-04T10:01:56;14.18;;;7.03;;
69629;SDS011;56857;52.212;5.496;2023-12-04T10:04:22;12.82;;;7.55;;
69629;SDS011;56857;52.212;5.496;2023-12-04T10:06:49;13.05;;;7.57;;
69629;SDS011;56857;52.212;5.496;2023-12-04T10:09:16;14.52;;;8.00;;
69629;SDS011;56857;52.212;5.496;2023-12-04T10:11:42;13.25;;;7.53;;
69629;SDS011;56857;52.212;5.496;2023-12-04T10:14:14;14.25;;;7.82;;
69629;SDS011;56857;52.212;5.496;2023-12-04T10:16:41;15.50;;;7.63;;
69629;SDS011;56857;52.212;5.496;2023-12-04T10:19:16;15.02;;;8.07;;
69629;SDS011;56857;52.212;5.496;2023-12-04T10:21:51;13.02;;;7.07;;
69629;SDS011;56857;52.212;5.496;2023-12-04T10:24:28;16.35;;;7.55;;
69629;SDS011;56857;52.212;5.496;2023-12-04T10:26:56;11.45;;;5.28;;
69629;SDS011;56857;52.212;5.496;2023-12-04T10:29:21;14.75;;;7.07;;
69629;SDS011;56857;52.212;5.496;2023-12-04T10:31:47;15.40;;;6.88;;
69629;SDS011;56857;52.212;5.496;2023-12-04T10:34:12;13.00;;;6.65;;
69629;SDS011;56857;52.212;5.496;2023-12-04T10:36:38;13.52;;;6.72;;
69629;SDS011;56857;52.212;5.496;2023-12-04T10:39:03;13.27;;;6.87;;
69629;SDS011;56857;52.212;5.496;2023-12-04T10:43:55;12.23;;;6.65;;
69629;SDS011;56857;52.212;5.496;2023-12-04T10:46:21;14.60;;;6.78;;
69629;SDS011;56857;52.212;5.496;2023-12-04T10:48:47;11.82;;;6.18;;
69629;SDS011;56857;52.212;5.496;2023-12-04T10:51:13;13.57;;;6.05;;
69629;SDS011;56857;52.212;5.496;2023-12-04T10:53:40;13.05;;;7.20;;
69629;SDS011;56857;52.212;5.496;2023-12-04T10:56:05;10.38;;;6.07;;
69629;SDS011;56857;52.212;5.496;2023-12-04T10:58:33;13.27;;;6.45;;
69629;SDS011;56857;52.212;5.496;2023-12-04T11:01:01;13.25;;;7.50;;
69629;SDS011;56857;52.212;5.496;2023-12-04T11:05:55;12.77;;;7.47;;
69629;SDS011;56857;52.212;5.496;2023-12-04T11:08:24;20.42;;;8.88;;
69629;SDS011;56857;52.212;5.496;2023-12-04T11:10:57;15.57;;;9.10;;
69629;SDS011;56857;52.212;5.496;2023-12-04T11:13:27;16.05;;;7.97;;
69629;SDS011;56857;52.212;5.496;2023-12-04T11:15:53;16.15;;;8.93;;
69629;SDS011;56857;52.212;5.496;2023-12-04T11:18:24;16.23;;;7.82;;
69629;SDS011;56857;52.212;5.496;2023-12-04T11:20:59;26.90;;;11.15;;
69629;SDS011;56857;52.212;5.496;2023-12-04T11:23:29;18.65;;;9.27;;
69629;SDS011;56857;52.212;5.496;2023-12-04T11:25:56;17.48;;;8.55;;
69629;SDS011;56857;52.212;5.496;2023-12-04T11:28:22;15.68;;;8.05;;
69629;SDS011;56857;52.212;5.496;2023-12-04T11:33:14;17.95;;;9.85;;
69629;SDS011;56857;52.212;5.496;2023-12-04T11:38:04;17.73;;;11.33;;
69629;SDS011;56857;52.212;5.496;2023-12-04T11:40:30;18.02;;;8.23;;
69629;SDS011;56857;52.212;5.496;2023-12-04T11:42:56;18.80;;;8.38;;
69629;SDS011;56857;52.212;5.496;2023-12-04T11:47:56;15.27;;;8.85;;
69629;SDS011;56857;52.212;5.496;2023-12-04T11:50:25;14.75;;;8.27;;
69629;SDS011;56857;52.212;5.496;2023-12-04T11:52:51;16.40;;;6.97;;
69629;SDS011;56857;52.212;5.496;2023-12-04T11:55:18;15.43;;;9.13;;
69629;SDS011;56857;52.212;5.496;2023-12-04T11:57:47;16.38;;;8.52;;
69629;SDS011;56857;52.212;5.496;2023-12-04T12:02:46;16.35;;;9.65;;
69629;SDS011;56857;52.212;5.496;2023-12-04T12:05:18;14.20;;;7.47;;
69629;SDS011;56857;52.212;5.496;2023-12-04T12:07:44;16.48;;;9.43;;
69629;SDS011;56857;52.212;5.496;2023-12-04T12:12:36;16.92;;;8.35;;
69629;SDS011;56857;52.212;5.496;2023-12-04T12:15:01;16.90;;;8.98;;
69629;SDS011;56857;52.212;5.496;2023-12-04T12:19:51;16.27;;;9.10;;
69629;SDS011;56857;52.212;5.496;2023-12-04T12:24:43;15.18;;;8.45;;
69629;SDS011;56857;52.212;5.496;2023-12-04T12:27:08;14.27;;;7.50;;
69629;SDS011;56857;52.212;5.496;2023-12-04T12:31:59;17.02;;;9.55;;
69629;SDS011;56857;52.212;5.496;2023-12-04T12:36:50;14.87;;;7.93;;
69629;SDS011;56857;52.212;5.496;2023-12-04T12:41:46;19.27;;;10.43;;
69629;SDS011;56857;52.212;5.496;2023-12-04T12:44:12;15.30;;;9.52;;
69629;SDS011;56857;52.212;5.496;2023-12-04T12:46:40;15.23;;;6.88;;
69629;SDS011;56857;52.212;5.496;2023-12-04T12:49:07;16.67;;;7.65;;
69629;SDS011;56857;52.212;5.496;2023-12-04T12:51:32;14.85;;;8.82;;
69629;SDS011;56857;52.212;5.496;2023-12-04T12:53:57;16.75;;;8.30;;
69629;SDS011;56857;52.212;5.496;2023-12-04T12:58:48;17.45;;;9.00;;
69629;SDS011;56857;52.212;5.496;2023-12-04T13:03:39;16.13;;;8.68;;
69629;SDS011;56857;52.212;5.496;2023-12-04T13:06:04;19.03;;;8.63;;
69629;SDS011;56857;52.212;5.496;2023-12-04T13:10:55;15.02;;;9.25;;
69629;SDS011;56857;52.212;5.496;2023-12-04T13:15:46;16.53;;;7.67;;
69629;SDS011;56857;52.212;5.496;2023-12-04T13:20:36;16.60;;;8.83;;
69629;SDS011;56857;52.212;5.496;2023-12-04T13:25:27;14.97;;;7.33;;
69629;SDS011;56857;52.212;5.496;2023-12-04T13:30:18;15.90;;;9.48;;
69629;SDS011;56857;52.212;5.496;2023-12-04T13:35:08;13.32;;;7.07;;
69629;SDS011;56857;52.212;5.496;2023-12-04T13:39:59;15.60;;;7.93;;
69629;SDS011;56857;52.212;5.496;2023-12-04T13:44:49;14.73;;;8.20;;
69629;SDS011;56857;52.212;5.496;2023-12-04T13:47:15;12.87;;;7.10;;
69629;SDS011;56857;52.212;5.496;2023-12-04T13:52:05;11.98;;;6.03;;
69629;SDS011;56857;52.212;5.496;2023-12-04T13:56:56;15.95;;;8.23;;
69629;SDS011;56857;52.212;5.496;2023-12-04T14:01:47;15.50;;;7.65;;
69629;SDS011;56857;52.212;5.496;2023-12-04T14:04:14;15.45;;;7.25;;
69629;SDS011;56857;52.212;5.496;2023-12-04T14:09:04;12.97;;;6.90;;
69629;SDS011;56857;52.212;5.496;2023-12-04T14:13:55;14.87;;;7.73;;
69629;SDS011;56857;52.212;5.496;2023-12-04T14:18:45;16.67;;;7.10;;
69629;SDS011;56857;52.212;5.496;2023-12-04T14:21:11;18.52;;;8.73;;
69629;SDS011;56857;52.212;5.496;2023-12-04T14:26:02;14.95;;;7.60;;
69629;SDS011;56857;52.212;5.496;2023-12-04T14:30:53;16.52;;;8.00;;
69629;SDS011;56857;52.212;5.496;2023-12-04T14:35:44;14.98;;;7.78;;
69629;SDS011;56857;52.212;5.496;2023-12-04T14:40:35;14.13;;;7.40;;
69629;SDS011;56857;52.212;5.496;2023-12-04T14:45:25;16.87;;;8.00;;
69629;SDS011;56857;52.212;5.496;2023-12-04T14:50:16;15.50;;;7.73;;
69629;SDS011;56857;52.212;5.496;2023-12-04T14:55:07;17.25;;;7.82;;
69629;SDS011;56857;52.212;5.496;2023-12-04T14:59:57;14.25;;;7.57;;
69629;SDS011;56857;52.212;5.496;2023-12-04T15:02:23;15.80;;;7.63;;
69629;SDS011;56857;52.212;5.496;2023-12-04T15:07:13;12.23;;;5.93;;
69629;SDS011;56857;52.212;5.496;2023-12-04T15:12:04;17.90;;;7.93;;
69629;SDS011;56857;52.212;5.496;2023-12-04T15:16:55;15.60;;;7.70;;
69629;SDS011;56857;52.212;5.496;2023-12-04T15:21:45;17.40;;;9.53;;
69629;SDS011;56857;52.212;5.496;2023-12-04T15:26:36;17.03;;;8.50;;
69629;SDS011;56857;52.212;5.496;2023-12-04T15:29:01;17.17;;;7.90;;
69629;SDS011;56857;52.212;5.496;2023-12-04T15:33:52;16.00;;;9.77;;
69629;SDS011;56857;52.212;5.496;2023-12-04T15:38:42;15.05;;;7.63;;
69629;SDS011;56857;52.212;5.496;2023-12-04T15:43:33;16.63;;;8.23;;
69629;SDS011;56857;52.212;5.496;2023-12-04T15:48:24;15.75;;;8.25;;
69629;SDS011;56857;52.212;5.496;2023-12-04T15:50:49;17.95;;;8.32;;
69629;SDS011;56857;52.212;5.496;2023-12-04T15:55:39;15.43;;;8.07;;
69629;SDS011;56857;52.212;5.496;2023-12-04T15:58:06;17.60;;;10.18;;
69629;SDS011;56857;52.212;5.496;2023-12-04T16:00:31;19.48;;;8.73;;
69629;SDS011;56857;52.212;5.496;2023-12-04T16:05:22;14.80;;;8.15;;
69629;SDS011;56857;52.212;5.496;2023-12-04T16:10:12;18.67;;;8.82;;
69629;SDS011;56857;52.212;5.496;2023-12-04T16:15:04;9.98;;;5.10;;
69629;SDS011;56857;52.212;5.496;2023-12-04T16:17:30;19.80;;;9.90;;
69629;SDS011;56857;52.212;5.496;2023-12-04T16:19:55;18.13;;;9.87;;
69629;SDS011;56857;52.212;5.496;2023-12-04T16:24:46;13.80;;;7.27;;
69629;SDS011;56857;52.212;5.496;2023-12-04T16:27:11;16.50;;;10.23;;
69629;SDS011;56857;52.212;5.496;2023-12-04T16:32:02;17.85;;;9.63;;
69629;SDS011;56857;52.212;5.496;2023-12-04T16:34:28;17.05;;;10.20;;
69629;SDS011;56857;52.212;5.496;2023-12-04T16:36:54;17.88;;;9.45;;
69629;SDS011;56857;52.212;5.496;2023-12-04T16:39:19;18.25;;;8.93;;
69629;SDS011;56857;52.212;5.496;2023-12-04T16:44:11;17.65;;;10.38;;
69629;SDS011;56857;52.212;5.496;2023-12-04T16:46:36;18.65;;;9.43;;
69629;SDS011;56857;52.212;5.496;2023-12-04T16:49:02;17.77;;;9.07;;
69629;SDS011;56857;52.212;5.496;2023-12-04T16:53:52;15.20;;;7.27;;
69629;SDS011;56857;52.212;5.496;2023-12-04T16:58:43;18.50;;;11.50;;
69629;SDS011;56857;52.212;5.496;2023-12-04T17:03:36;17.15;;;9.95;;
69629;SDS011;56857;52.212;5.496;2023-12-04T17:06:02;17.75;;;9.98;;
69629;SDS011;56857;52.212;5.496;2023-12-04T17:10:52;15.93;;;9.10;;
69629;SDS011;56857;52.212;5.496;2023-12-04T17:15:44;23.23;;;10.82;;
69629;SDS011;56857;52.212;5.496;2023-12-04T17:20:34;19.95;;;10.90;;
69629;SDS011;56857;52.212;5.496;2023-12-04T17:25:25;18.97;;;11.30;;
69629;SDS011;56857;52.212;5.496;2023-12-04T17:30:16;15.13;;;9.68;;
69629;SDS011;56857;52.212;5.496;2023-12-04T17:35:06;19.00;;;11.52;;
69629;SDS011;56857;52.212;5.496;2023-12-04T17:39:57;17.92;;;10.02;;
69629;SDS011;56857;52.212;5.496;2023-12-04T17:44:48;19.50;;;12.73;;
69629;SDS011;56857;52.212;5.496;2023-12-04T17:49:38;19.23;;;10.77;;
69629;SDS011;56857;52.212;5.496;2023-12-04T17:52:04;21.58;;;13.70;;
69629;SDS011;56857;52.212;5.496;2023-12-04T17:56:55;22.60;;;12.00;;
69629;SDS011;56857;52.212;5.496;2023-12-04T18:01:46;19.20;;;11.07;;
69629;SDS011;56857;52.212;5.496;2023-12-04T18:06:36;18.23;;;11.37;;
69629;SDS011;56857;52.212;5.496;2023-12-04T18:11:27;18.40;;;11.13;;
69629;SDS011;56857;52.212;5.496;2023-12-04T18:16:17;18.53;;;8.80;;
69629;SDS011;56857;52.212;5.496;2023-12-04T18:21:08;17.25;;;9.95;;
69629;SDS011;56857;52.212;5.496;2023-12-04T18:25:59;16.87;;;9.77;;
69629;SDS011;56857;52.212;5.496;2023-12-04T18:30:50;19.98;;;12.30;;
69629;SDS011;56857;52.212;5.496;2023-12-04T18:35:41;18.05;;;11.07;;
69629;SDS011;56857;52.212;5.496;2023-12-04T18:40:59;19.77;;;12.52;;
69629;SDS011;56857;52.212;5.496;2023-12-04T18:43:25;20.25;;;13.90;;
69629;SDS011;56857;52.212;5.496;2023-12-04T18:45:50;18.45;;;11.50;;
69629;SDS011;56857;52.212;5.496;2023-12-04T18:48:18;21.35;;;13.98;;
69629;SDS011;56857;52.212;5.496;2023-12-04T18:50:44;19.83;;;12.25;;
69629;SDS011;56857;52.212;5.496;2023-12-04T18:53:10;23.23;;;13.10;;
69629;SDS011;56857;52.212;5.496;2023-12-04T18:58:01;21.27;;;12.80;;
69629;SDS011;56857;52.212;5.496;2023-12-04T19:02:51;18.38;;;12.18;;
69629;SDS011;56857;52.212;5.496;2023-12-04T19:05:17;18.48;;;11.07;;
69629;SDS011;56857;52.212;5.496;2023-12-04T19:10:08;19.00;;;12.13;;
69629;SDS011;56857;52.212;5.496;2023-12-04T19:12:33;19.85;;;11.77;;
69629;SDS011;56857;52.212;5.496;2023-12-04T19:14:59;19.23;;;11.93;;
69629;SDS011;56857;52.212;5.496;2023-12-04T19:17:24;19.27;;;11.27;;
69629;SDS011;56857;52.212;5.496;2023-12-04T19:19:49;18.33;;;12.00;;
69629;SDS011;56857;52.212;5.496;2023-12-04T19:24:40;16.30;;;10.90;;
69629;SDS011;56857;52.212;5.496;2023-12-04T19:29:30;18.00;;;11.93;;
69629;SDS011;56857;52.212;5.496;2023-12-04T19:34:21;16.43;;;10.10;;
69629;SDS011;56857;52.212;5.496;2023-12-04T19:36:46;16.63;;;10.50;;
69629;SDS011;56857;52.212;5.496;2023-12-04T19:41:37;17.07;;;12.13;;
69629;SDS011;56857;52.212;5.496;2023-12-04T19:46:27;15.17;;;9.53;;
69629;SDS011;56857;52.212;5.496;2023-12-04T19:51:18;18.37;;;12.10;;
69629;SDS011;56857;52.212;5.496;2023-12-04T19:53:44;17.27;;;10.90;;
69629;SDS011;56857;52.212;5.496;2023-12-04T19:56:10;18.77;;;11.05;;
69629;SDS011;56857;52.212;5.496;2023-12-04T19:58:36;17.15;;;10.95;;
69629;SDS011;56857;52.212;5.496;2023-12-04T20:03:26;18.13;;;11.23;;
69629;SDS011;56857;52.212;5.496;2023-12-04T20:08:18;20.02;;;12.57;;
69629;SDS011;56857;52.212;5.496;2023-12-04T20:10:43;20.50;;;13.00;;
69629;SDS011;56857;52.212;5.496;2023-12-04T20:13:08;20.35;;;12.30;;
69629;SDS011;56857;52.212;5.496;2023-12-04T20:15:34;19.35;;;12.00;;
69629;SDS011;56857;52.212;5.496;2023-12-04T20:20:27;21.42;;;13.38;;
69629;SDS011;56857;52.212;5.496;2023-12-04T20:22:53;23.73;;;15.23;;
69629;SDS011;56857;52.212;5.496;2023-12-04T20:27:43;22.48;;;15.07;;
69629;SDS011;56857;52.212;5.496;2023-12-04T20:30:09;23.10;;;13.20;;
69629;SDS011;56857;52.212;5.496;2023-12-04T20:35:01;24.63;;;14.00;;
69629;SDS011;56857;52.212;5.496;2023-12-04T20:37:26;23.77;;;13.75;;
69629;SDS011;56857;52.212;5.496;2023-12-04T20:39:52;23.10;;;13.97;;
69629;SDS011;56857;52.212;5.496;2023-12-04T20:44:43;25.57;;;14.63;;
69629;SDS011;56857;52.212;5.496;2023-12-04T20:49:33;26.07;;;13.77;;
69629;SDS011;56857;52.212;5.496;2023-12-04T20:54:24;26.73;;;14.32;;
69629;SDS011;56857;52.212;5.496;2023-12-04T20:59:15;23.38;;;13.50;;
69629;SDS011;56857;52.212;5.496;2023-12-04T21:01:40;26.47;;;14.17;;
69629;SDS011;56857;52.212;5.496;2023-12-04T21:06:31;27.98;;;14.27;;
69629;SDS011;56857;52.212;5.496;2023-12-04T21:11:21;26.92;;;15.77;;
69629;SDS011;56857;52.212;5.496;2023-12-04T21:13:47;25.47;;;14.37;;
69629;SDS011;56857;52.212;5.496;2023-12-04T21:16:12;26.08;;;16.58;;
69629;SDS011;56857;52.212;5.496;2023-12-04T21:18:37;27.25;;;14.55;;
69629;SDS011;56857;52.212;5.496;2023-12-04T21:23:28;25.25;;;14.55;;
69629;SDS011;56857;52.212;5.496;2023-12-04T21:28:18;24.20;;;14.38;;
69629;SDS011;56857;52.212;5.496;2023-12-04T21:33:09;25.50;;;15.50;;
69629;SDS011;56857;52.212;5.496;2023-12-04T21:35:34;24.77;;;15.13;;
69629;SDS011;56857;52.212;5.496;2023-12-04T21:37:59;26.57;;;15.37;;